Terminal Aerodrome Forecast
Issued by NWS Twin Cities, MN

Home | Current Version | Previous Version | Text Only | Print | Product List | Glossary Off
Versions: 1 2 3 4 5 6 7 8 9 10 11 12 13 14 15 16 17

695
FTUS43 KMPX 202335
TAFEAU
TAF
KEAU 202335Z 2100/2124 09005KT P6SM FEW250
     FM210700 VRB03KT P6SM BKN150
     FM211500 10007KT P6SM VCSH BKN040
     FM211800 11007KT 6SM -SHRA BKN030=

USA.gov is the U.S. government's official web portal to all federal, state and local government web resources and services.